createdAt,value
2022-11-30T00:01:50.565Z,56.67
2022-11-30T00:04:18.265Z,59.50
2022-11-30T00:06:46.401Z,60.03
2022-11-30T00:09:15.395Z,63.38
2022-11-30T00:11:43.211Z,58.80
2022-11-30T00:14:10.875Z,66.78
2022-11-30T00:16:38.651Z,59.75
2022-11-30T00:19:06.416Z,62.72
2022-11-30T00:21:34.036Z,64.03
2022-11-30T00:24:01.909Z,58.80
2022-11-30T00:26:31.010Z,59.40
2022-11-30T00:28:58.670Z,62.78
2022-11-30T00:31:26.310Z,61.20
2022-11-30T00:33:54.033Z,69.57
2022-11-30T00:36:23.203Z,69.18
2022-11-30T00:38:52.044Z,71.97
2022-11-30T00:41:20.346Z,61.13
2022-11-30T00:43:49.654Z,63.55
2022-11-30T00:46:17.426Z,59.40
2022-11-30T00:48:45.413Z,65.65
2022-11-30T00:51:13.438Z,59.47
2022-11-30T00:53:41.944Z,54.72
2022-11-30T00:56:10.748Z,55.47
2022-11-30T00:58:38.575Z,58.42
2022-11-30T01:01:08.102Z,56.75
2022-11-30T01:03:36.215Z,57.00
2022-11-30T01:06:04.380Z,61.67
2022-11-30T01:08:32.218Z,73.00
2022-11-30T01:11:07.034Z,56.17
2022-11-30T01:13:34.794Z,64.13
2022-11-30T01:16:02.529Z,59.10
2022-11-30T01:18:31.586Z,66.97
2022-11-30T01:20:59.274Z,55.22
2022-11-30T01:23:26.977Z,60.65
2022-11-30T01:25:55.737Z,60.10
2022-11-30T01:28:23.461Z,57.20
2022-11-30T01:30:59.275Z,61.72
2022-11-30T01:33:26.983Z,59.95
2022-11-30T01:36:03.889Z,61.03
2022-11-30T01:38:35.925Z,53.25
2022-11-30T01:41:04.394Z,56.67
2022-11-30T01:43:40.627Z,62.25
2022-11-30T01:46:23.767Z,57.42
2022-11-30T01:48:58.709Z,58.33
2022-11-30T01:51:32.327Z,56.08
2022-11-30T01:54:02.621Z,52.35
2022-11-30T01:56:30.308Z,58.15
2022-11-30T01:58:58.331Z,49.58
2022-11-30T02:01:27.165Z,55.95
2022-11-30T02:04:00.277Z,54.08
2022-11-30T02:06:30.470Z,52.25
2022-11-30T02:08:58.310Z,50.55
2022-11-30T02:11:28.842Z,52.20
2022-11-30T02:14:07.079Z,53.30
2022-11-30T02:16:46.198Z,55.03
2022-11-30T02:19:41.348Z,55.63
2022-11-30T02:22:24.043Z,49.40
2022-11-30T02:25:01.860Z,49.53
2022-11-30T02:27:50.647Z,44.72
2022-11-30T02:30:21.425Z,39.72
2022-11-30T02:32:53.894Z,44.67
2022-11-30T02:35:25.992Z,46.72
2022-11-30T02:37:55.780Z,50.13
2022-11-30T02:40:23.459Z,49.80
2022-11-30T02:42:54.072Z,51.55
2022-11-30T02:45:37.080Z,47.83
2022-11-30T02:48:10.127Z,51.47
2022-11-30T02:50:44.207Z,49.17
2022-11-30T02:53:11.948Z,40.75
2022-11-30T02:55:39.619Z,50.50
2022-11-30T02:58:07.798Z,48.00
2022-11-30T03:00:37.111Z,52.33
2022-11-30T03:03:05.505Z,46.88
2022-11-30T03:05:33.211Z,48.50
2022-11-30T03:08:00.899Z,49.72
2022-11-30T03:10:28.640Z,48.95
2022-11-30T03:12:59.289Z,48.25
2022-11-30T03:15:27.275Z,47.55
2022-11-30T03:17:57.910Z,48.47
2022-11-30T03:20:25.544Z,49.35
2022-11-30T03:22:53.228Z,43.72
2022-11-30T03:25:20.865Z,45.65
2022-11-30T03:27:48.571Z,45.83
2022-11-30T03:30:16.539Z,43.60
2022-11-30T03:32:44.379Z,40.88
2022-11-30T03:35:13.835Z,39.92
2022-11-30T03:37:41.440Z,47.95
2022-11-30T03:40:10.192Z,44.88
2022-11-30T03:42:38.221Z,39.40
2022-11-30T03:45:07.161Z,43.55
2022-11-30T03:47:34.846Z,45.03
2022-11-30T03:50:02.562Z,39.47
2022-11-30T03:52:31.619Z,37.75
2022-11-30T03:54:59.313Z,36.70
2022-11-30T03:57:26.990Z,40.33
2022-11-30T03:59:54.614Z,39.88
2022-11-30T04:02:22.493Z,38.40
2022-11-30T04:04:50.217Z,41.90
2022-11-30T04:07:17.925Z,35.25
2022-11-30T04:09:47.021Z,32.60
2022-11-30T04:12:14.673Z,35.35
2022-11-30T04:14:42.296Z,31.23
2022-11-30T04:17:09.987Z,35.90
2022-11-30T04:19:37.647Z,37.30
2022-11-30T04:22:05.316Z,31.38
2022-11-30T04:24:32.953Z,34.42
2022-11-30T04:27:01.981Z,33.05
2022-11-30T04:29:29.642Z,34.55
2022-11-30T04:31:57.283Z,34.58
2022-11-30T04:34:28.321Z,36.58
2022-11-30T04:37:00.115Z,36.95
2022-11-30T04:39:28.222Z,39.45
2022-11-30T04:41:56.535Z,36.55
2022-11-30T04:44:25.574Z,40.78
2022-11-30T04:46:53.370Z,36.58
2022-11-30T04:49:21.015Z,34.95
2022-11-30T04:51:48.719Z,37.15
2022-11-30T04:54:16.379Z,41.35
2022-11-30T04:56:44.007Z,38.25
2022-11-30T04:59:11.655Z,41.53
2022-11-30T05:01:40.788Z,34.92
2022-11-30T05:04:08.587Z,44.25
2022-11-30T05:06:36.370Z,35.80
2022-11-30T05:09:04.162Z,34.40
2022-11-30T05:11:31.892Z,37.65
2022-11-30T05:13:59.512Z,36.83
2022-11-30T05:16:27.233Z,40.67
2022-11-30T05:18:56.261Z,35.45
2022-11-30T05:21:23.911Z,34.97
2022-11-30T05:23:52.452Z,36.50
2022-11-30T05:26:20.199Z,34.35
2022-11-30T05:28:47.854Z,48.72
2022-11-30T05:31:15.622Z,41.25
2022-11-30T05:33:43.317Z,45.35
2022-11-30T05:36:12.407Z,36.72
2022-11-30T05:38:40.233Z,38.35
2022-11-30T05:41:07.869Z,38.60
2022-11-30T05:43:35.591Z,35.22
2022-11-30T05:46:04.626Z,32.13
2022-11-30T05:48:32.590Z,39.67
2022-11-30T05:51:06.597Z,39.38
2022-11-30T05:53:35.909Z,37.70
2022-11-30T05:56:04.537Z,36.22
2022-11-30T05:58:32.529Z,36.03
2022-11-30T06:01:00.575Z,34.10
2022-11-30T06:03:29.462Z,33.53
2022-11-30T06:05:57.347Z,28.83
2022-11-30T06:08:25.610Z,32.58
2022-11-30T06:10:54.626Z,31.52
2022-11-30T06:13:27.459Z,32.95
2022-11-30T06:15:59.668Z,32.72
2022-11-30T06:18:27.390Z,37.22
2022-11-30T06:20:55.289Z,30.17
2022-11-30T06:23:23.991Z,33.85
2022-11-30T06:25:51.665Z,39.38
2022-11-30T06:28:20.705Z,31.85
2022-11-30T06:30:48.405Z,36.58
2022-11-30T06:33:16.034Z,36.03
2022-11-30T06:35:46.643Z,36.00
2022-11-30T06:38:14.740Z,31.30
2022-11-30T06:40:42.394Z,32.92
2022-11-30T06:43:10.358Z,34.58
2022-11-30T06:45:39.450Z,32.10
2022-11-30T06:48:07.353Z,35.10
2022-11-30T06:50:35.040Z,38.92
2022-11-30T06:53:02.808Z,36.75
2022-11-30T06:55:32.762Z,30.05
2022-11-30T06:58:06.525Z,34.75
2022-11-30T07:00:35.061Z,35.05
2022-11-30T07:03:04.751Z,34.40
2022-11-30T07:05:35.715Z,32.70
2022-11-30T07:08:03.538Z,37.58
2022-11-30T07:10:31.313Z,31.48
2022-11-30T07:12:59.141Z,31.58
2022-11-30T07:15:26.908Z,31.10
2022-11-30T07:17:54.592Z,36.38
2022-11-30T07:20:23.783Z,31.77
2022-11-30T07:22:51.573Z,35.95
2022-11-30T07:25:36.857Z,35.05
2022-11-30T07:28:04.582Z,34.78
2022-11-30T07:30:32.643Z,35.40
2022-11-30T07:33:00.595Z,37.53
2022-11-30T07:35:29.625Z,42.90
2022-11-30T07:37:57.310Z,41.10
2022-11-30T07:40:25.092Z,43.75
2022-11-30T07:42:56.182Z,41.10
2022-11-30T07:45:23.944Z,39.55
2022-11-30T07:47:51.619Z,45.00
2022-11-30T07:50:19.579Z,50.80
2022-11-30T07:52:48.671Z,44.95
2022-11-30T07:55:16.465Z,46.00
2022-11-30T07:57:44.204Z,43.55
2022-11-30T08:00:14.721Z,45.13
2022-11-30T08:02:42.376Z,40.25
2022-11-30T08:05:12.030Z,35.17
2022-11-30T08:07:39.756Z,33.13
2022-11-30T08:10:10.488Z,37.30
2022-11-30T08:12:38.311Z,35.35
2022-11-30T08:15:28.908Z,41.08
2022-11-30T08:17:55.349Z,34.15
2022-11-30T08:20:23.544Z,34.63
2022-11-30T08:22:52.791Z,33.85
2022-11-30T08:25:21.840Z,32.17
2022-11-30T08:27:49.451Z,31.55
2022-11-30T08:30:17.489Z,40.00
2022-11-30T08:32:45.190Z,37.33
2022-11-30T08:35:12.946Z,37.97
2022-11-30T08:37:40.681Z,38.22
2022-11-30T08:40:09.255Z,34.83
2022-11-30T08:42:38.279Z,35.45
2022-11-30T08:45:06.959Z,40.30
2022-11-30T08:47:34.633Z,44.40
2022-11-30T08:50:02.326Z,40.40
2022-11-30T08:52:30.089Z,36.70
2022-11-30T08:54:57.758Z,37.80
2022-11-30T08:57:26.793Z,35.72
2022-11-30T08:59:55.853Z,33.33
2022-11-30T09:02:23.690Z,33.25
2022-11-30T09:04:53.477Z,34.47
2022-11-30T09:07:21.279Z,35.38
2022-11-30T09:09:49.063Z,37.22
2022-11-30T09:12:16.763Z,35.28
2022-11-30T09:14:45.698Z,28.65
2022-11-30T09:17:15.340Z,27.13
2022-11-30T09:19:43.028Z,35.03
2022-11-30T09:22:11.102Z,31.50
2022-11-30T09:24:39.151Z,27.10
2022-11-30T09:27:06.844Z,30.60
2022-11-30T09:29:34.568Z,30.80
2022-11-30T09:32:02.261Z,32.10
2022-11-30T09:34:31.288Z,35.67
2022-11-30T09:36:59.146Z,37.92
2022-11-30T09:39:26.785Z,29.25
2022-11-30T09:42:19.246Z,31.92
2022-11-30T09:44:55.609Z,36.88
2022-11-30T09:47:38.893Z,31.27
2022-11-30T09:50:14.294Z,32.95
2022-11-30T09:52:44.269Z,37.28
2022-11-30T09:55:17.377Z,32.05
2022-11-30T09:57:47.351Z,35.42
2022-11-30T10:00:19.153Z,32.67
2022-11-30T10:02:47.149Z,36.15
2022-11-30T10:05:18.355Z,39.65
2022-11-30T10:08:02.188Z,33.50
2022-11-30T10:10:38.502Z,35.13
2022-11-30T10:13:23.291Z,36.83
2022-11-30T10:16:04.060Z,38.88
2022-11-30T10:18:42.614Z,37.63
2022-11-30T10:21:24.767Z,38.55
2022-11-30T10:24:04.350Z,36.80
2022-11-30T10:26:35.204Z,32.78
2022-11-30T10:29:13.185Z,36.17
2022-11-30T10:31:42.458Z,31.00
2022-11-30T10:34:20.312Z,28.25
2022-11-30T10:36:55.560Z,22.92
2022-11-30T10:39:29.623Z,27.67
2022-11-30T10:42:03.770Z,26.73
2022-11-30T10:44:35.374Z,29.55
2022-11-30T10:47:11.384Z,28.05
2022-11-30T10:49:42.491Z,36.40
2022-11-30T10:52:14.541Z,31.70
2022-11-30T10:54:42.224Z,30.80
2022-11-30T10:57:10.390Z,28.33
2022-11-30T10:59:43.632Z,28.10
2022-11-30T11:02:37.037Z,29.98
2022-11-30T11:05:17.478Z,26.10
2022-11-30T11:07:51.276Z,28.00
2022-11-30T11:10:21.013Z,27.02
2022-11-30T11:12:51.228Z,26.88
2022-11-30T11:15:23.356Z,24.27
2022-11-30T11:17:51.686Z,25.13
2022-11-30T11:20:34.747Z,30.70
2022-11-30T11:23:04.957Z,28.33
2022-11-30T11:25:35.682Z,33.42
2022-11-30T11:28:13.627Z,28.17
2022-11-30T11:30:41.728Z,32.13
2022-11-30T11:33:21.408Z,31.67
2022-11-30T11:35:50.579Z,29.65
2022-11-30T11:38:26.114Z,26.75
2022-11-30T11:40:57.260Z,28.00
2022-11-30T11:43:26.798Z,30.65
2022-11-30T11:45:56.809Z,35.10
2022-11-30T11:48:31.547Z,26.90
2022-11-30T11:51:08.895Z,25.98
2022-11-30T11:53:50.100Z,28.50
2022-11-30T11:56:26.169Z,20.98
2022-11-30T11:58:59.423Z,24.80
2022-11-30T12:01:44.510Z,22.65
2022-11-30T12:04:21.846Z,24.00
2022-11-30T12:06:54.862Z,18.08
2022-11-30T12:09:29.567Z,19.35
2022-11-30T12:12:04.194Z,24.42
2022-11-30T12:14:33.600Z,25.52
2022-11-30T12:17:25.397Z,26.65
2022-11-30T12:20:07.252Z,25.13
2022-11-30T12:22:54.946Z,27.13
2022-11-30T12:25:27.540Z,23.98
2022-11-30T12:28:06.907Z,23.23
2022-11-30T12:30:47.519Z,26.42
2022-11-30T12:33:25.446Z,25.70
2022-11-30T12:36:03.168Z,24.88
2022-11-30T12:38:42.328Z,24.77
2022-11-30T12:41:31.689Z,27.13
2022-11-30T12:44:11.532Z,30.05
2022-11-30T12:46:45.150Z,27.15
2022-11-30T12:49:27.564Z,29.00
2022-11-30T12:52:04.107Z,28.30
2022-11-30T12:54:41.219Z,29.00
2022-11-30T12:57:18.438Z,24.90
2022-11-30T12:59:53.947Z,19.95
2022-11-30T13:02:52.081Z,24.60
2022-11-30T13:05:25.608Z,25.55
2022-11-30T13:07:59.162Z,24.75
2022-11-30T13:10:35.215Z,20.52
2022-11-30T13:13:05.392Z,22.55
2022-11-30T13:15:35.699Z,25.58
2022-11-30T13:18:04.889Z,23.55
2022-11-30T13:20:40.647Z,26.27
2022-11-30T13:23:13.873Z,26.75
2022-11-30T13:28:57.888Z,30.90
2022-11-30T13:31:28.738Z,32.22
2022-11-30T13:34:00.941Z,31.80
2022-11-30T13:36:34.321Z,30.88
2022-11-30T13:39:23.241Z,32.80
2022-11-30T13:41:53.737Z,33.95
2022-11-30T13:44:30.508Z,36.97
2022-11-30T13:46:58.620Z,31.10
2022-11-30T13:49:31.089Z,29.67
2022-11-30T13:52:21.980Z,30.38
2022-11-30T13:54:48.441Z,28.67
2022-11-30T13:57:48.883Z,29.73
2022-11-30T14:00:48.066Z,29.27
2022-11-30T14:03:26.144Z,32.25
2022-11-30T14:05:54.642Z,34.72
2022-11-30T14:08:40.031Z,29.13
2022-11-30T14:11:40.471Z,25.48
2022-11-30T14:14:47.125Z,26.27
2022-11-30T14:17:20.281Z,23.60
2022-11-30T14:19:50.884Z,29.08
2022-11-30T14:22:19.421Z,27.75
2022-11-30T14:24:49.716Z,25.17
2022-11-30T14:27:21.091Z,26.10
2022-11-30T14:29:53.252Z,25.05
2022-11-30T14:32:30.989Z,31.65
2022-11-30T14:35:09.060Z,22.30
2022-11-30T14:37:42.326Z,23.52
2022-11-30T14:40:19.309Z,30.98
2022-11-30T14:42:52.711Z,28.13
2022-11-30T14:45:22.737Z,27.70
2022-11-30T14:48:04.634Z,26.92
2022-11-30T14:50:33.231Z,29.20
2022-11-30T14:53:18.969Z,31.35
2022-11-30T14:55:51.709Z,28.42
2022-11-30T14:58:27.656Z,28.50
2022-11-30T15:00:57.287Z,28.25
2022-11-30T15:03:28.879Z,28.45
2022-11-30T15:05:59.045Z,25.95
2022-11-30T15:08:33.352Z,27.02
2022-11-30T15:11:05.198Z,25.85
2022-11-30T15:13:33.470Z,26.35
2022-11-30T15:16:01.174Z,27.15
2022-11-30T15:18:30.265Z,25.58
2022-11-30T15:21:02.211Z,31.58
2022-11-30T15:23:30.146Z,29.83
2022-11-30T15:26:01.864Z,30.73
2022-11-30T15:28:33.148Z,29.15
2022-11-30T15:31:05.483Z,29.98
2022-11-30T15:33:41.296Z,37.30
2022-11-30T15:36:27.946Z,29.00
2022-11-30T15:38:57.713Z,29.60
2022-11-30T15:41:26.645Z,27.65
2022-11-30T15:43:56.923Z,32.35
2022-11-30T15:46:41.249Z,30.30
2022-11-30T15:49:20.950Z,32.95
2022-11-30T15:51:59.244Z,32.55
2022-11-30T15:54:47.027Z,34.10
2022-11-30T15:57:14.786Z,34.42
2022-11-30T15:59:43.043Z,30.60
2022-11-30T16:02:29.058Z,28.27
2022-11-30T16:05:26.913Z,34.42
2022-11-30T16:07:57.283Z,34.03
2022-11-30T16:10:26.883Z,38.63
2022-11-30T16:12:55.980Z,40.33
2022-11-30T16:15:25.483Z,41.10
2022-11-30T16:17:54.964Z,43.60
2022-11-30T16:20:22.976Z,36.80
2022-11-30T16:22:52.224Z,38.47
2022-11-30T16:25:21.929Z,42.28
2022-11-30T16:27:50.144Z,44.00
2022-11-30T16:30:19.911Z,43.67
2022-11-30T16:32:48.142Z,44.45
2022-11-30T16:35:20.971Z,40.38
2022-11-30T16:37:48.700Z,40.20
2022-11-30T16:40:18.542Z,42.83
2022-11-30T16:42:46.295Z,37.10
2022-11-30T16:45:17.687Z,43.15
2022-11-30T16:47:45.921Z,34.83
2022-11-30T16:50:15.307Z,41.78
2022-11-30T16:52:43.745Z,38.60
2022-11-30T16:55:16.586Z,35.25
2022-11-30T16:57:46.487Z,41.85
2022-11-30T17:00:16.710Z,42.90
2022-11-30T17:02:49.145Z,38.20
2022-11-30T17:05:17.172Z,36.20
2022-11-30T17:07:44.969Z,36.33
2022-11-30T17:10:13.901Z,41.17
2022-11-30T17:12:41.666Z,60.75
2022-11-30T17:15:16.359Z,39.92
2022-11-30T17:17:44.258Z,36.85
2022-11-30T17:20:13.477Z,35.47
2022-11-30T17:22:41.448Z,39.33
2022-11-30T17:25:14.076Z,31.58
2022-11-30T17:27:41.985Z,41.53
2022-11-30T17:30:10.811Z,35.40
2022-11-30T17:32:39.829Z,41.30
2022-11-30T17:35:08.737Z,35.90
2022-11-30T17:37:36.818Z,40.33
2022-11-30T17:40:07.012Z,38.13
2022-11-30T17:42:35.041Z,33.88
2022-11-30T17:45:02.962Z,34.75
2022-11-30T17:47:30.847Z,39.80
2022-11-30T17:49:59.883Z,34.97
2022-11-30T17:52:27.669Z,34.63
2022-11-30T17:54:55.288Z,30.20
2022-11-30T17:57:22.947Z,27.80
2022-11-30T17:59:50.582Z,25.55
2022-11-30T18:02:18.380Z,36.15
2022-11-30T18:04:46.389Z,27.35
2022-11-30T18:07:16.499Z,28.27
2022-11-30T18:09:44.284Z,28.60
2022-11-30T18:12:12.551Z,27.27
2022-11-30T18:14:40.184Z,27.13
2022-11-30T18:17:08.024Z,29.17
2022-11-30T18:19:35.742Z,27.75
2022-11-30T18:22:03.455Z,23.23
2022-11-30T18:24:32.506Z,28.08
2022-11-30T18:27:00.159Z,28.85
2022-11-30T18:29:28.271Z,23.70
2022-11-30T18:31:56.004Z,24.60
2022-11-30T18:34:23.716Z,26.33
2022-11-30T18:36:51.392Z,28.67
2022-11-30T18:39:19.219Z,24.30
2022-11-30T18:41:48.971Z,26.90
2022-11-30T18:44:16.642Z,27.48
2022-11-30T18:46:44.475Z,25.67
2022-11-30T18:49:12.246Z,26.30
2022-11-30T18:51:39.980Z,25.50
2022-11-30T18:54:10.867Z,24.90
2022-11-30T18:56:39.929Z,35.47
2022-11-30T18:59:13.206Z,26.17
2022-11-30T19:01:41.553Z,34.28
2022-11-30T19:04:11.376Z,25.42
2022-11-30T19:06:41.350Z,27.42
2022-11-30T19:09:11.577Z,28.30
2022-11-30T19:11:40.442Z,29.48
2022-11-30T19:14:09.925Z,30.90
2022-11-30T19:16:37.596Z,30.50
2022-11-30T19:19:07.920Z,31.58
2022-11-30T19:21:36.150Z,33.97
2022-11-30T19:24:04.116Z,34.30
2022-11-30T19:26:31.893Z,33.33
2022-11-30T19:28:59.762Z,33.65
2022-11-30T19:31:28.830Z,30.27
2022-11-30T19:33:57.069Z,29.95
2022-11-30T19:36:26.913Z,34.30
2022-11-30T19:38:54.675Z,35.63
2022-11-30T19:41:22.990Z,34.92
2022-11-30T19:44:01.285Z,32.90
2022-11-30T19:46:34.488Z,38.00
2022-11-30T19:49:02.890Z,34.70
2022-11-30T19:51:31.920Z,35.90
2022-11-30T19:54:00.225Z,35.45
2022-11-30T19:56:28.712Z,37.78
2022-11-30T19:59:02.646Z,39.80
2022-11-30T20:01:34.944Z,33.50
2022-11-30T20:04:02.808Z,33.50
2022-11-30T20:06:33.553Z,36.20
2022-11-30T20:09:01.954Z,33.55
2022-11-30T20:11:29.651Z,31.25
2022-11-30T20:13:58.491Z,37.78
2022-11-30T20:16:26.249Z,29.27
2022-11-30T20:18:57.263Z,30.83
2022-11-30T20:21:27.110Z,32.53
2022-11-30T20:23:59.177Z,34.63
2022-11-30T20:26:29.948Z,29.88
2022-11-30T20:28:58.741Z,31.58
2022-11-30T20:31:27.349Z,33.33
2022-11-30T20:33:56.447Z,31.23
2022-11-30T20:36:24.219Z,29.92
2022-11-30T20:38:52.301Z,34.63
2022-11-30T20:41:22.143Z,28.08
2022-11-30T20:43:50.741Z,33.28
2022-11-30T20:46:21.664Z,30.77
2022-11-30T20:48:50.088Z,29.73
2022-11-30T20:51:36.353Z,31.73
2022-11-30T20:54:07.120Z,32.72
2022-11-30T20:56:36.734Z,27.90
2022-11-30T20:59:06.232Z,31.27
2022-11-30T21:01:34.692Z,32.28
2022-11-30T21:04:02.514Z,26.33
2022-11-30T21:06:31.668Z,29.98
2022-11-30T21:08:59.850Z,26.27
2022-11-30T21:11:28.512Z,25.42
2022-11-30T21:13:56.652Z,30.98
2022-11-30T21:16:28.658Z,29.13
2022-11-30T21:18:59.965Z,30.08
2022-11-30T21:21:30.753Z,29.35
2022-11-30T21:24:01.143Z,23.23
2022-11-30T21:26:31.233Z,27.58
2022-11-30T21:29:01.933Z,27.38
2022-11-30T21:31:30.486Z,27.45
2022-11-30T21:33:58.398Z,24.80
2022-11-30T21:36:26.160Z,28.92
2022-11-30T21:39:04.576Z,31.98
2022-11-30T21:41:35.428Z,28.08
2022-11-30T21:44:03.210Z,27.13
2022-11-30T21:46:31.014Z,23.60
2022-11-30T21:48:58.995Z,26.60
2022-11-30T21:51:28.577Z,26.70
2022-11-30T21:53:57.512Z,22.33
2022-11-30T21:56:27.009Z,20.65
2022-11-30T21:58:56.716Z,27.55
2022-11-30T22:01:28.251Z,24.67
2022-11-30T22:03:56.313Z,25.58
2022-11-30T22:06:25.753Z,31.95
2022-11-30T22:08:53.531Z,27.10
2022-11-30T22:11:23.381Z,29.05
2022-11-30T22:13:51.952Z,29.02
2022-11-30T22:16:23.624Z,26.48
2022-11-30T22:18:53.610Z,22.85
2022-11-30T22:21:23.635Z,28.33
2022-11-30T22:23:54.911Z,21.73
2022-11-30T22:26:23.911Z,25.10
2022-11-30T22:28:54.705Z,25.35
2022-11-30T22:31:25.571Z,24.35
2022-11-30T22:33:54.089Z,29.13
2022-11-30T22:36:24.205Z,26.88
2022-11-30T22:38:55.712Z,28.60
2022-11-30T22:41:23.771Z,27.73
2022-11-30T22:43:51.424Z,31.17
2022-11-30T22:46:21.751Z,26.10
2022-11-30T22:48:50.962Z,21.10
2022-11-30T22:51:20.508Z,25.80
2022-11-30T22:53:49.095Z,31.15
2022-11-30T22:56:18.804Z,26.42
2022-11-30T22:58:48.015Z,30.55
2022-11-30T23:01:18.044Z,25.45
2022-11-30T23:03:47.208Z,32.20
2022-11-30T23:06:17.938Z,31.92
2022-11-30T23:08:46.948Z,32.05
2022-11-30T23:11:17.633Z,31.27
2022-11-30T23:13:45.553Z,29.58
2022-11-30T23:16:15.183Z,32.00
2022-11-30T23:18:44.806Z,34.00
2022-11-30T23:21:14.772Z,38.58
2022-11-30T23:23:44.693Z,33.78
2022-11-30T23:26:14.860Z,33.00
2022-11-30T23:28:44.972Z,34.72
2022-11-30T23:31:33.788Z,34.55
2022-11-30T23:34:02.612Z,36.42
2022-11-30T23:36:30.357Z,41.35
2022-11-30T23:39:00.900Z,37.53
2022-11-30T23:41:28.847Z,34.60
2022-11-30T23:43:58.136Z,33.28
2022-11-30T23:46:26.319Z,37.28
2022-11-30T23:48:55.608Z,40.03
2022-11-30T23:51:24.404Z,38.47
2022-11-30T23:53:52.207Z,36.85
2022-11-30T23:56:22.425Z,36.08
2022-11-30T23:58:50.099Z,37.05
